sensor_id;sensor_type;location;lat;lon;timestamp;P1;durP1;ratioP1;P2;durP2;ratioP2
27939;SDS011;15275;51.716;14.324;2023-04-15T00:01:24;23.75;;;15.02;;
27939;SDS011;15275;51.716;14.324;2023-04-15T00:03:51;27.83;;;16.45;;
27939;SDS011;15275;51.716;14.324;2023-04-15T00:06:22;22.55;;;14.35;;
27939;SDS011;15275;51.716;14.324;2023-04-15T00:08:48;28.20;;;16.33;;
27939;SDS011;15275;51.716;14.324;2023-04-15T00:11:17;26.98;;;15.68;;
27939;SDS011;15275;51.716;14.324;2023-04-15T00:13:44;25.27;;;16.30;;
27939;SDS011;15275;51.716;14.324;2023-04-15T00:16:10;24.48;;;14.98;;
27939;SDS011;15275;51.716;14.324;2023-04-15T00:18:36;28.40;;;17.13;;
27939;SDS011;15275;51.716;14.324;2023-04-15T00:21:03;28.42;;;17.45;;
27939;SDS011;15275;51.716;14.324;2023-04-15T00:23:29;29.90;;;16.70;;
27939;SDS011;15275;51.716;14.324;2023-04-15T00:25:56;28.08;;;16.98;;
27939;SDS011;15275;51.716;14.324;2023-04-15T00:28:22;29.00;;;16.58;;
27939;SDS011;15275;51.716;14.324;2023-04-15T00:30:47;26.85;;;17.55;;
27939;SDS011;15275;51.716;14.324;2023-04-15T00:33:14;30.35;;;17.75;;
27939;SDS011;15275;51.716;14.324;2023-04-15T00:35:40;34.00;;;16.83;;
27939;SDS011;15275;51.716;14.324;2023-04-15T00:38:06;36.75;;;18.05;;
27939;SDS011;15275;51.716;14.324;2023-04-15T00:40:32;28.92;;;16.83;;
27939;SDS011;15275;51.716;14.324;2023-04-15T00:42:59;28.83;;;17.95;;
27939;SDS011;15275;51.716;14.324;2023-04-15T00:45:25;29.67;;;18.50;;
27939;SDS011;15275;51.716;14.324;2023-04-15T00:47:52;28.52;;;17.83;;
27939;SDS011;15275;51.716;14.324;2023-04-15T00:50:18;27.23;;;16.50;;
27939;SDS011;15275;51.716;14.324;2023-04-15T00:52:44;30.88;;;19.10;;
27939;SDS011;15275;51.716;14.324;2023-04-15T00:55:10;30.52;;;17.83;;
27939;SDS011;15275;51.716;14.324;2023-04-15T00:57:36;30.85;;;18.45;;
27939;SDS011;15275;51.716;14.324;2023-04-15T01:00:04;30.00;;;17.55;;
27939;SDS011;15275;51.716;14.324;2023-04-15T01:02:33;29.38;;;18.48;;
27939;SDS011;15275;51.716;14.324;2023-04-15T01:05:00;32.60;;;18.35;;
27939;SDS011;15275;51.716;14.324;2023-04-15T01:07:26;32.22;;;19.65;;
27939;SDS011;15275;51.716;14.324;2023-04-15T01:09:52;33.63;;;19.75;;
27939;SDS011;15275;51.716;14.324;2023-04-15T01:12:18;33.03;;;19.90;;
27939;SDS011;15275;51.716;14.324;2023-04-15T01:14:44;42.75;;;22.65;;
27939;SDS011;15275;51.716;14.324;2023-04-15T01:17:10;35.35;;;21.67;;
27939;SDS011;15275;51.716;14.324;2023-04-15T01:19:37;37.13;;;20.23;;
27939;SDS011;15275;51.716;14.324;2023-04-15T01:22:03;35.65;;;22.20;;
27939;SDS011;15275;51.716;14.324;2023-04-15T01:24:30;35.03;;;19.90;;
27939;SDS011;15275;51.716;14.324;2023-04-15T01:26:58;34.88;;;20.55;;
27939;SDS011;15275;51.716;14.324;2023-04-15T01:29:23;36.22;;;20.25;;
27939;SDS011;15275;51.716;14.324;2023-04-15T01:31:53;36.40;;;20.45;;
27939;SDS011;15275;51.716;14.324;2023-04-15T01:34:20;35.33;;;21.23;;
27939;SDS011;15275;51.716;14.324;2023-04-15T01:36:47;32.83;;;20.10;;
27939;SDS011;15275;51.716;14.324;2023-04-15T01:39:13;35.97;;;22.00;;
27939;SDS011;15275;51.716;14.324;2023-04-15T01:41:39;37.42;;;20.65;;
27939;SDS011;15275;51.716;14.324;2023-04-15T01:44:06;32.35;;;20.17;;
27939;SDS011;15275;51.716;14.324;2023-04-15T01:46:32;37.83;;;21.42;;
27939;SDS011;15275;51.716;14.324;2023-04-15T01:48:59;37.78;;;21.00;;
27939;SDS011;15275;51.716;14.324;2023-04-15T01:51:25;37.53;;;21.35;;
27939;SDS011;15275;51.716;14.324;2023-04-15T01:53:51;34.70;;;21.40;;
27939;SDS011;15275;51.716;14.324;2023-04-15T01:56:17;34.83;;;21.55;;
27939;SDS011;15275;51.716;14.324;2023-04-15T01:58:43;37.83;;;21.33;;
27939;SDS011;15275;51.716;14.324;2023-04-15T02:01:09;37.88;;;22.25;;
27939;SDS011;15275;51.716;14.324;2023-04-15T02:03:36;35.50;;;22.02;;
27939;SDS011;15275;51.716;14.324;2023-04-15T02:06:03;36.65;;;21.45;;
27939;SDS011;15275;51.716;14.324;2023-04-15T02:08:30;38.22;;;23.02;;
27939;SDS011;15275;51.716;14.324;2023-04-15T02:10:56;39.03;;;22.38;;
27939;SDS011;15275;51.716;14.324;2023-04-15T02:13:22;38.05;;;22.73;;
27939;SDS011;15275;51.716;14.324;2023-04-15T02:15:48;35.05;;;21.75;;
27939;SDS011;15275;51.716;14.324;2023-04-15T02:18:15;41.30;;;23.70;;
27939;SDS011;15275;51.716;14.324;2023-04-15T02:20:41;40.83;;;24.23;;
27939;SDS011;15275;51.716;14.324;2023-04-15T02:23:11;36.75;;;22.13;;
27939;SDS011;15275;51.716;14.324;2023-04-15T02:25:37;36.08;;;22.02;;
27939;SDS011;15275;51.716;14.324;2023-04-15T02:28:04;37.38;;;21.35;;
27939;SDS011;15275;51.716;14.324;2023-04-15T02:30:30;37.60;;;22.75;;
27939;SDS011;15275;51.716;14.324;2023-04-15T02:32:59;37.33;;;21.92;;
27939;SDS011;15275;51.716;14.324;2023-04-15T02:35:25;37.65;;;22.38;;
27939;SDS011;15275;51.716;14.324;2023-04-15T02:37:51;37.17;;;21.55;;
27939;SDS011;15275;51.716;14.324;2023-04-15T02:40:17;32.15;;;20.25;;
27939;SDS011;15275;51.716;14.324;2023-04-15T02:42:43;35.75;;;20.70;;
27939;SDS011;15275;51.716;14.324;2023-04-15T02:45:09;37.05;;;22.60;;
27939;SDS011;15275;51.716;14.324;2023-04-15T02:47:38;40.30;;;22.90;;
27939;SDS011;15275;51.716;14.324;2023-04-15T02:50:08;37.80;;;23.00;;
27939;SDS011;15275;51.716;14.324;2023-04-15T02:52:37;37.30;;;22.75;;
27939;SDS011;15275;51.716;14.324;2023-04-15T02:55:05;39.80;;;22.17;;
27939;SDS011;15275;51.716;14.324;2023-04-15T02:57:32;39.15;;;22.33;;
27939;SDS011;15275;51.716;14.324;2023-04-15T02:59:59;35.67;;;21.98;;
27939;SDS011;15275;51.716;14.324;2023-04-15T03:02:24;43.58;;;22.25;;
27939;SDS011;15275;51.716;14.324;2023-04-15T03:04:50;33.05;;;20.42;;
27939;SDS011;15275;51.716;14.324;2023-04-15T03:07:16;34.05;;;20.02;;
27939;SDS011;15275;51.716;14.324;2023-04-15T03:09:44;29.75;;;18.70;;
27939;SDS011;15275;51.716;14.324;2023-04-15T03:12:11;29.08;;;18.55;;
27939;SDS011;15275;51.716;14.324;2023-04-15T03:14:37;29.55;;;18.13;;
27939;SDS011;15275;51.716;14.324;2023-04-15T03:17:03;31.40;;;17.45;;
27939;SDS011;15275;51.716;14.324;2023-04-15T03:19:29;27.15;;;17.05;;
27939;SDS011;15275;51.716;14.324;2023-04-15T03:21:55;25.77;;;16.58;;
27939;SDS011;15275;51.716;14.324;2023-04-15T03:24:22;26.95;;;16.55;;
27939;SDS011;15275;51.716;14.324;2023-04-15T03:26:48;28.00;;;15.90;;
27939;SDS011;15275;51.716;14.324;2023-04-15T03:29:14;30.13;;;15.68;;
27939;SDS011;15275;51.716;14.324;2023-04-15T03:31:40;25.05;;;15.35;;
27939;SDS011;15275;51.716;14.324;2023-04-15T03:34:06;22.15;;;14.48;;
27939;SDS011;15275;51.716;14.324;2023-04-15T03:36:32;25.25;;;13.82;;
27939;SDS011;15275;51.716;14.324;2023-04-15T03:38:58;22.05;;;14.30;;
27939;SDS011;15275;51.716;14.324;2023-04-15T03:41:26;21.33;;;13.52;;
27939;SDS011;15275;51.716;14.324;2023-04-15T03:43:52;21.63;;;12.77;;
27939;SDS011;15275;51.716;14.324;2023-04-15T03:46:18;18.08;;;12.52;;
27939;SDS011;15275;51.716;14.324;2023-04-15T03:48:45;19.63;;;12.38;;
27939;SDS011;15275;51.716;14.324;2023-04-15T03:51:11;17.27;;;12.20;;
27939;SDS011;15275;51.716;14.324;2023-04-15T03:53:37;16.63;;;11.40;;
27939;SDS011;15275;51.716;14.324;2023-04-15T03:56:03;18.85;;;11.23;;
27939;SDS011;15275;51.716;14.324;2023-04-15T03:58:29;17.27;;;11.65;;
27939;SDS011;15275;51.716;14.324;2023-04-15T04:00:55;18.08;;;11.32;;
27939;SDS011;15275;51.716;14.324;2023-04-15T04:03:21;16.83;;;10.93;;
27939;SDS011;15275;51.716;14.324;2023-04-15T04:05:47;17.73;;;10.98;;
27939;SDS011;15275;51.716;14.324;2023-04-15T04:08:12;19.40;;;10.68;;
27939;SDS011;15275;51.716;14.324;2023-04-15T04:10:40;19.13;;;9.80;;
27939;SDS011;15275;51.716;14.324;2023-04-15T04:13:06;15.88;;;9.57;;
27939;SDS011;15275;51.716;14.324;2023-04-15T04:15:32;16.80;;;10.48;;
27939;SDS011;15275;51.716;14.324;2023-04-15T04:17:58;14.43;;;10.40;;
27939;SDS011;15275;51.716;14.324;2023-04-15T04:20:24;16.20;;;10.05;;
27939;SDS011;15275;51.716;14.324;2023-04-15T04:22:50;14.65;;;8.93;;
27939;SDS011;15275;51.716;14.324;2023-04-15T04:25:15;16.83;;;9.63;;
27939;SDS011;15275;51.716;14.324;2023-04-15T04:27:41;13.55;;;8.90;;
27939;SDS011;15275;51.716;14.324;2023-04-15T04:30:07;14.20;;;9.77;;
27939;SDS011;15275;51.716;14.324;2023-04-15T04:32:33;13.55;;;9.40;;
27939;SDS011;15275;51.716;14.324;2023-04-15T04:34:59;15.73;;;10.35;;
27939;SDS011;15275;51.716;14.324;2023-04-15T04:37:25;13.80;;;9.90;;
27939;SDS011;15275;51.716;14.324;2023-04-15T04:39:51;13.73;;;9.38;;
27939;SDS011;15275;51.716;14.324;2023-04-15T04:42:17;13.70;;;9.30;;
27939;SDS011;15275;51.716;14.324;2023-04-15T04:44:42;14.82;;;8.80;;
27939;SDS011;15275;51.716;14.324;2023-04-15T04:47:08;12.13;;;9.40;;
27939;SDS011;15275;51.716;14.324;2023-04-15T04:49:34;13.02;;;8.95;;
27939;SDS011;15275;51.716;14.324;2023-04-15T04:52:00;15.15;;;10.02;;
27939;SDS011;15275;51.716;14.324;2023-04-15T04:54:26;16.27;;;8.85;;
27939;SDS011;15275;51.716;14.324;2023-04-15T04:56:52;18.23;;;9.77;;
27939;SDS011;15275;51.716;14.324;2023-04-15T04:59:18;14.77;;;9.05;;
27939;SDS011;15275;51.716;14.324;2023-04-15T05:01:44;12.23;;;8.88;;
27939;SDS011;15275;51.716;14.324;2023-04-15T05:04:10;14.20;;;8.38;;
27939;SDS011;15275;51.716;14.324;2023-04-15T05:06:36;15.02;;;9.00;;
27939;SDS011;15275;51.716;14.324;2023-04-15T05:09:02;15.65;;;10.15;;
27939;SDS011;15275;51.716;14.324;2023-04-15T05:11:28;15.07;;;9.63;;
27939;SDS011;15275;51.716;14.324;2023-04-15T05:13:54;15.60;;;9.77;;
27939;SDS011;15275;51.716;14.324;2023-04-15T05:16:20;14.18;;;9.27;;
27939;SDS011;15275;51.716;14.324;2023-04-15T05:18:46;11.10;;;8.15;;
27939;SDS011;15275;51.716;14.324;2023-04-15T05:21:11;13.52;;;8.68;;
27939;SDS011;15275;51.716;14.324;2023-04-15T05:23:37;12.65;;;9.13;;
27939;SDS011;15275;51.716;14.324;2023-04-15T05:26:04;13.30;;;8.85;;
27939;SDS011;15275;51.716;14.324;2023-04-15T05:28:29;13.20;;;8.90;;
27939;SDS011;15275;51.716;14.324;2023-04-15T05:30:55;14.68;;;9.15;;
27939;SDS011;15275;51.716;14.324;2023-04-15T05:33:21;19.75;;;9.25;;
27939;SDS011;15275;51.716;14.324;2023-04-15T05:35:47;11.43;;;8.55;;
27939;SDS011;15275;51.716;14.324;2023-04-15T05:38:13;12.57;;;9.10;;
27939;SDS011;15275;51.716;14.324;2023-04-15T05:40:39;16.50;;;9.43;;
27939;SDS011;15275;51.716;14.324;2023-04-15T05:43:05;14.27;;;9.70;;
27939;SDS011;15275;51.716;14.324;2023-04-15T05:45:31;14.95;;;9.35;;
27939;SDS011;15275;51.716;14.324;2023-04-15T05:47:57;14.13;;;8.90;;
27939;SDS011;15275;51.716;14.324;2023-04-15T05:50:22;16.83;;;9.48;;
27939;SDS011;15275;51.716;14.324;2023-04-15T05:52:48;13.95;;;9.77;;
27939;SDS011;15275;51.716;14.324;2023-04-15T05:55:14;18.20;;;9.68;;
27939;SDS011;15275;51.716;14.324;2023-04-15T05:57:40;12.63;;;8.98;;
27939;SDS011;15275;51.716;14.324;2023-04-15T06:00:06;14.63;;;9.20;;
27939;SDS011;15275;51.716;14.324;2023-04-15T06:02:32;14.70;;;9.18;;
27939;SDS011;15275;51.716;14.324;2023-04-15T06:04:58;16.00;;;9.57;;
27939;SDS011;15275;51.716;14.324;2023-04-15T06:07:24;12.23;;;9.32;;
27939;SDS011;15275;51.716;14.324;2023-04-15T06:09:50;14.35;;;9.40;;
27939;SDS011;15275;51.716;14.324;2023-04-15T06:12:16;14.18;;;9.65;;
27939;SDS011;15275;51.716;14.324;2023-04-15T06:14:42;15.18;;;10.27;;
27939;SDS011;15275;51.716;14.324;2023-04-15T06:17:08;15.35;;;9.40;;
27939;SDS011;15275;51.716;14.324;2023-04-15T06:19:34;14.20;;;8.88;;
27939;SDS011;15275;51.716;14.324;2023-04-15T06:22:01;14.95;;;9.55;;
27939;SDS011;15275;51.716;14.324;2023-04-15T06:24:27;13.00;;;10.02;;
27939;SDS011;15275;51.716;14.324;2023-04-15T06:26:53;17.92;;;9.77;;
27939;SDS011;15275;51.716;14.324;2023-04-15T06:29:19;15.32;;;10.65;;
27939;SDS011;15275;51.716;14.324;2023-04-15T06:31:48;14.35;;;9.85;;
27939;SDS011;15275;51.716;14.324;2023-04-15T06:34:14;16.13;;;10.43;;
27939;SDS011;15275;51.716;14.324;2023-04-15T06:36:39;16.27;;;10.25;;
27939;SDS011;15275;51.716;14.324;2023-04-15T06:39:05;13.10;;;10.18;;
27939;SDS011;15275;51.716;14.324;2023-04-15T06:41:31;14.57;;;10.48;;
27939;SDS011;15275;51.716;14.324;2023-04-15T06:43:58;19.92;;;10.68;;
27939;SDS011;15275;51.716;14.324;2023-04-15T06:46:24;16.55;;;10.88;;
27939;SDS011;15275;51.716;14.324;2023-04-15T06:48:49;15.60;;;10.45;;
27939;SDS011;15275;51.716;14.324;2023-04-15T06:51:16;16.90;;;11.18;;
27939;SDS011;15275;51.716;14.324;2023-04-15T06:53:42;16.30;;;11.18;;
27939;SDS011;15275;51.716;14.324;2023-04-15T06:56:08;16.80;;;11.27;;
27939;SDS011;15275;51.716;14.324;2023-04-15T06:58:34;15.38;;;11.20;;
27939;SDS011;15275;51.716;14.324;2023-04-15T07:01:00;20.00;;;11.60;;
27939;SDS011;15275;51.716;14.324;2023-04-15T07:03:27;15.73;;;11.52;;
27939;SDS011;15275;51.716;14.324;2023-04-15T07:05:53;17.42;;;11.98;;
27939;SDS011;15275;51.716;14.324;2023-04-15T07:08:19;15.32;;;10.50;;
27939;SDS011;15275;51.716;14.324;2023-04-15T07:10:45;21.15;;;11.30;;
27939;SDS011;15275;51.716;14.324;2023-04-15T07:13:11;17.85;;;11.93;;
27939;SDS011;15275;51.716;14.324;2023-04-15T07:15:38;13.77;;;10.43;;
27939;SDS011;15275;51.716;14.324;2023-04-15T07:18:04;14.18;;;10.57;;
27939;SDS011;15275;51.716;14.324;2023-04-15T07:20:31;15.68;;;11.13;;
27939;SDS011;15275;51.716;14.324;2023-04-15T07:22:57;15.32;;;10.65;;
27939;SDS011;15275;51.716;14.324;2023-04-15T07:25:23;15.38;;;10.32;;
27939;SDS011;15275;51.716;14.324;2023-04-15T07:27:48;15.85;;;10.68;;
27939;SDS011;15275;51.716;14.324;2023-04-15T07:30:14;18.10;;;11.07;;
27939;SDS011;15275;51.716;14.324;2023-04-15T07:32:40;15.18;;;10.90;;
27939;SDS011;15275;51.716;14.324;2023-04-15T07:35:07;17.30;;;11.55;;
27939;SDS011;15275;51.716;14.324;2023-04-15T07:37:33;15.48;;;9.85;;
27939;SDS011;15275;51.716;14.324;2023-04-15T07:40:00;14.68;;;10.65;;
27939;SDS011;15275;51.716;14.324;2023-04-15T07:42:26;14.57;;;10.88;;
27939;SDS011;15275;51.716;14.324;2023-04-15T07:44:53;13.90;;;11.02;;
27939;SDS011;15275;51.716;14.324;2023-04-15T07:47:19;15.57;;;10.30;;
27939;SDS011;15275;51.716;14.324;2023-04-15T07:49:45;17.23;;;10.85;;
27939;SDS011;15275;51.716;14.324;2023-04-15T07:52:11;15.70;;;11.65;;
27939;SDS011;15275;51.716;14.324;2023-04-15T07:54:37;15.63;;;11.65;;
27939;SDS011;15275;51.716;14.324;2023-04-15T07:57:03;16.98;;;11.10;;
27939;SDS011;15275;51.716;14.324;2023-04-15T07:59:29;16.77;;;11.25;;
27939;SDS011;15275;51.716;14.324;2023-04-15T08:01:57;15.27;;;11.00;;
27939;SDS011;15275;51.716;14.324;2023-04-15T08:04:23;13.80;;;10.88;;
27939;SDS011;15275;51.716;14.324;2023-04-15T08:06:49;17.13;;;12.13;;
27939;SDS011;15275;51.716;14.324;2023-04-15T08:09:16;15.98;;;11.55;;
27939;SDS011;15275;51.716;14.324;2023-04-15T08:11:42;16.65;;;11.73;;
27939;SDS011;15275;51.716;14.324;2023-04-15T08:14:08;18.25;;;12.27;;
27939;SDS011;15275;51.716;14.324;2023-04-15T08:16:34;17.67;;;11.50;;
27939;SDS011;15275;51.716;14.324;2023-04-15T08:18:59;16.85;;;11.43;;
27939;SDS011;15275;51.716;14.324;2023-04-15T08:21:25;17.38;;;12.02;;
27939;SDS011;15275;51.716;14.324;2023-04-15T08:23:51;17.95;;;11.93;;
27939;SDS011;15275;51.716;14.324;2023-04-15T08:26:18;15.60;;;11.63;;
27939;SDS011;15275;51.716;14.324;2023-04-15T08:28:45;17.38;;;12.23;;
27939;SDS011;15275;51.716;14.324;2023-04-15T08:31:16;15.45;;;10.95;;
27939;SDS011;15275;51.716;14.324;2023-04-15T08:33:43;17.55;;;11.50;;
27939;SDS011;15275;51.716;14.324;2023-04-15T08:36:09;17.48;;;12.30;;
27939;SDS011;15275;51.716;14.324;2023-04-15T08:38:35;17.98;;;11.25;;
27939;SDS011;15275;51.716;14.324;2023-04-15T08:44:13;17.95;;;11.55;;
27939;SDS011;15275;51.716;14.324;2023-04-15T08:46:40;18.77;;;13.13;;
27939;SDS011;15275;51.716;14.324;2023-04-15T08:49:12;18.98;;;12.77;;
27939;SDS011;15275;51.716;14.324;2023-04-15T08:51:38;16.70;;;12.13;;
27939;SDS011;15275;51.716;14.324;2023-04-15T08:54:05;21.15;;;13.55;;
27939;SDS011;15275;51.716;14.324;2023-04-15T08:56:33;16.80;;;12.65;;
27939;SDS011;15275;51.716;14.324;2023-04-15T08:59:01;17.05;;;12.18;;
27939;SDS011;15275;51.716;14.324;2023-04-15T09:01:27;17.08;;;12.52;;
27939;SDS011;15275;51.716;14.324;2023-04-15T09:03:53;18.35;;;13.88;;
27939;SDS011;15275;51.716;14.324;2023-04-15T09:06:22;18.23;;;12.50;;
27939;SDS011;15275;51.716;14.324;2023-04-15T09:08:50;22.98;;;15.98;;
27939;SDS011;15275;51.716;14.324;2023-04-15T09:11:17;21.80;;;15.02;;
27939;SDS011;15275;51.716;14.324;2023-04-15T09:13:44;28.77;;;19.92;;
27939;SDS011;15275;51.716;14.324;2023-04-15T09:16:10;28.15;;;16.08;;
27939;SDS011;15275;51.716;14.324;2023-04-15T09:18:37;20.00;;;13.95;;
27939;SDS011;15275;51.716;14.324;2023-04-15T09:21:08;16.38;;;12.35;;
27939;SDS011;15275;51.716;14.324;2023-04-15T09:23:36;17.33;;;12.90;;
27939;SDS011;15275;51.716;14.324;2023-04-15T09:26:05;9.23;;;8.30;;
27939;SDS011;15275;51.716;14.324;2023-04-15T09:28:31;7.75;;;6.50;;
27939;SDS011;15275;51.716;14.324;2023-04-15T09:31:00;9.68;;;5.68;;
27939;SDS011;15275;51.716;14.324;2023-04-15T09:33:27;5.82;;;4.72;;
27939;SDS011;15275;51.716;14.324;2023-04-15T09:36:01;5.65;;;3.13;;
27939;SDS011;15275;51.716;14.324;2023-04-15T09:38:29;2.78;;;2.47;;
27939;SDS011;15275;51.716;14.324;2023-04-15T09:40:56;3.75;;;2.30;;
27939;SDS011;15275;51.716;14.324;2023-04-15T09:43:36;2.33;;;1.60;;
27939;SDS011;15275;51.716;14.324;2023-04-15T09:46:05;3.33;;;1.55;;
27939;SDS011;15275;51.716;14.324;2023-04-15T09:48:31;1.92;;;1.52;;
27939;SDS011;15275;51.716;14.324;2023-04-15T09:50:57;1.58;;;1.20;;
27939;SDS011;15275;51.716;14.324;2023-04-15T09:53:25;1.52;;;1.17;;
27939;SDS011;15275;51.716;14.324;2023-04-15T09:55:56;1.23;;;1.13;;
27939;SDS011;15275;51.716;14.324;2023-04-15T09:58:28;2.17;;;1.33;;
27939;SDS011;15275;51.716;14.324;2023-04-15T10:00:56;1.95;;;1.65;;
27939;SDS011;15275;51.716;14.324;2023-04-15T10:03:24;2.28;;;1.50;;
27939;SDS011;15275;51.716;14.324;2023-04-15T10:05:56;2.13;;;1.60;;
27939;SDS011;15275;51.716;14.324;2023-04-15T10:08:25;2.80;;;1.45;;
27939;SDS011;15275;51.716;14.324;2023-04-15T10:10:54;1.88;;;1.38;;
27939;SDS011;15275;51.716;14.324;2023-04-15T10:13:20;1.27;;;1.15;;
27939;SDS011;15275;51.716;14.324;2023-04-15T10:18:40;1.52;;;1.20;;
27939;SDS011;15275;51.716;14.324;2023-04-15T10:21:08;1.45;;;1.20;;
27939;SDS011;15275;51.716;14.324;2023-04-15T10:23:35;1.75;;;1.40;;
27939;SDS011;15275;51.716;14.324;2023-04-15T10:26:03;2.00;;;1.40;;
27939;SDS011;15275;51.716;14.324;2023-04-15T10:28:29;3.53;;;1.73;;
27939;SDS011;15275;51.716;14.324;2023-04-15T10:30:55;1.48;;;1.17;;
27939;SDS011;15275;51.716;14.324;2023-04-15T10:33:22;1.08;;;0.90;;
27939;SDS011;15275;51.716;14.324;2023-04-15T10:35:49;1.20;;;1.10;;
27939;SDS011;15275;51.716;14.324;2023-04-15T10:38:50;1.25;;;1.08;;
27939;SDS011;15275;51.716;14.324;2023-04-15T10:41:17;1.80;;;1.40;;
27939;SDS011;15275;51.716;14.324;2023-04-15T10:43:55;2.35;;;1.17;;
27939;SDS011;15275;51.716;14.324;2023-04-15T10:46:44;1.98;;;1.13;;
27939;SDS011;15275;51.716;14.324;2023-04-15T10:49:23;1.70;;;1.25;;
27939;SDS011;15275;51.716;14.324;2023-04-15T10:51:51;1.70;;;1.17;;
27939;SDS011;15275;51.716;14.324;2023-04-15T10:56:52;3.30;;;1.10;;
27939;SDS011;15275;51.716;14.324;2023-04-15T10:59:38;1.30;;;1.08;;
27939;SDS011;15275;51.716;14.324;2023-04-15T11:05:13;3.97;;;1.40;;
27939;SDS011;15275;51.716;14.324;2023-04-15T11:07:46;1.50;;;1.23;;
27939;SDS011;15275;51.716;14.324;2023-04-15T11:12:51;1.88;;;1.48;;
27939;SDS011;15275;51.716;14.324;2023-04-15T11:17:52;2.05;;;1.20;;
27939;SDS011;15275;51.716;14.324;2023-04-15T11:20:19;1.55;;;1.33;;
27939;SDS011;15275;51.716;14.324;2023-04-15T11:22:52;1.33;;;1.13;;
27939;SDS011;15275;51.716;14.324;2023-04-15T11:25:25;1.30;;;1.20;;
27939;SDS011;15275;51.716;14.324;2023-04-15T11:27:57;1.85;;;1.40;;
27939;SDS011;15275;51.716;14.324;2023-04-15T11:30:25;2.38;;;1.30;;
27939;SDS011;15275;51.716;14.324;2023-04-15T11:32:56;1.77;;;1.20;;
27939;SDS011;15275;51.716;14.324;2023-04-15T11:35:24;1.50;;;1.20;;
27939;SDS011;15275;51.716;14.324;2023-04-15T11:37:50;1.73;;;1.20;;
27939;SDS011;15275;51.716;14.324;2023-04-15T11:40:21;1.80;;;1.30;;
27939;SDS011;15275;51.716;14.324;2023-04-15T11:43:09;1.70;;;1.35;;
27939;SDS011;15275;51.716;14.324;2023-04-15T11:48:21;1.38;;;1.20;;
27939;SDS011;15275;51.716;14.324;2023-04-15T11:50:55;1.98;;;1.30;;
27939;SDS011;15275;51.716;14.324;2023-04-15T11:53:42;1.30;;;1.20;;
27939;SDS011;15275;51.716;14.324;2023-04-15T11:56:10;1.60;;;1.10;;
27939;SDS011;15275;51.716;14.324;2023-04-15T11:58:48;1.83;;;1.20;;
27939;SDS011;15275;51.716;14.324;2023-04-15T12:01:18;1.20;;;0.98;;
27939;SDS011;15275;51.716;14.324;2023-04-15T12:03:45;1.58;;;1.40;;
27939;SDS011;15275;51.716;14.324;2023-04-15T12:06:20;1.10;;;1.00;;
27939;SDS011;15275;51.716;14.324;2023-04-15T12:13:55;2.17;;;1.90;;
27939;SDS011;15275;51.716;14.324;2023-04-15T12:16:27;3.83;;;2.58;;
27939;SDS011;15275;51.716;14.324;2023-04-15T12:18:54;2.58;;;2.08;;
27939;SDS011;15275;51.716;14.324;2023-04-15T12:21:26;2.65;;;2.00;;
27939;SDS011;15275;51.716;14.324;2023-04-15T12:24:02;4.15;;;1.88;;
27939;SDS011;15275;51.716;14.324;2023-04-15T12:26:33;2.35;;;2.10;;
27939;SDS011;15275;51.716;14.324;2023-04-15T12:29:01;2.30;;;1.92;;
27939;SDS011;15275;51.716;14.324;2023-04-15T12:31:30;2.45;;;2.15;;
27939;SDS011;15275;51.716;14.324;2023-04-15T12:33:57;2.45;;;2.25;;
27939;SDS011;15275;51.716;14.324;2023-04-15T12:36:25;3.13;;;2.58;;
27939;SDS011;15275;51.716;14.324;2023-04-15T12:38:52;2.95;;;2.20;;
27939;SDS011;15275;51.716;14.324;2023-04-15T12:41:19;4.50;;;2.67;;
27939;SDS011;15275;51.716;14.324;2023-04-15T12:43:46;4.20;;;2.95;;
27939;SDS011;15275;51.716;14.324;2023-04-15T12:46:12;5.55;;;3.38;;
27939;SDS011;15275;51.716;14.324;2023-04-15T12:48:39;4.95;;;3.58;;
27939;SDS011;15275;51.716;14.324;2023-04-15T12:51:05;4.00;;;3.03;;
27939;SDS011;15275;51.716;14.324;2023-04-15T12:53:31;3.10;;;2.65;;
27939;SDS011;15275;51.716;14.324;2023-04-15T12:55:57;3.65;;;2.88;;
27939;SDS011;15275;51.716;14.324;2023-04-15T12:58:24;3.08;;;2.63;;
27939;SDS011;15275;51.716;14.324;2023-04-15T13:00:50;4.35;;;3.08;;
27939;SDS011;15275;51.716;14.324;2023-04-15T13:03:16;4.85;;;3.40;;
27939;SDS011;15275;51.716;14.324;2023-04-15T13:05:42;3.92;;;2.70;;
27939;SDS011;15275;51.716;14.324;2023-04-15T13:08:08;4.18;;;3.35;;
27939;SDS011;15275;51.716;14.324;2023-04-15T13:10:34;5.25;;;4.30;;
27939;SDS011;15275;51.716;14.324;2023-04-15T13:13:03;5.28;;;3.53;;
27939;SDS011;15275;51.716;14.324;2023-04-15T13:15:29;4.60;;;3.45;;
27939;SDS011;15275;51.716;14.324;2023-04-15T13:17:55;4.25;;;3.33;;
27939;SDS011;15275;51.716;14.324;2023-04-15T13:20:21;4.80;;;3.28;;
27939;SDS011;15275;51.716;14.324;2023-04-15T13:22:47;5.85;;;3.58;;
27939;SDS011;15275;51.716;14.324;2023-04-15T13:25:13;4.32;;;3.67;;
27939;SDS011;15275;51.716;14.324;2023-04-15T13:27:39;4.97;;;3.55;;
27939;SDS011;15275;51.716;14.324;2023-04-15T13:30:05;4.47;;;3.53;;
27939;SDS011;15275;51.716;14.324;2023-04-15T13:32:31;3.90;;;3.50;;
27939;SDS011;15275;51.716;14.324;2023-04-15T13:34:57;5.07;;;3.97;;
27939;SDS011;15275;51.716;14.324;2023-04-15T13:37:27;5.88;;;4.03;;
27939;SDS011;15275;51.716;14.324;2023-04-15T13:39:54;4.55;;;3.38;;
27939;SDS011;15275;51.716;14.324;2023-04-15T13:42:21;5.28;;;3.83;;
27939;SDS011;15275;51.716;14.324;2023-04-15T13:44:50;4.30;;;3.53;;
27939;SDS011;15275;51.716;14.324;2023-04-15T13:47:18;4.72;;;3.40;;
27939;SDS011;15275;51.716;14.324;2023-04-15T13:49:44;5.03;;;3.67;;
27939;SDS011;15275;51.716;14.324;2023-04-15T13:52:10;4.15;;;3.70;;
27939;SDS011;15275;51.716;14.324;2023-04-15T13:54:37;6.20;;;3.67;;
27939;SDS011;15275;51.716;14.324;2023-04-15T13:57:03;5.85;;;4.15;;
27939;SDS011;15275;51.716;14.324;2023-04-15T13:59:31;9.82;;;4.13;;
27939;SDS011;15275;51.716;14.324;2023-04-15T14:01:59;6.00;;;3.38;;
27939;SDS011;15275;51.716;14.324;2023-04-15T14:04:25;5.20;;;3.92;;
27939;SDS011;15275;51.716;14.324;2023-04-15T14:06:51;4.13;;;3.55;;
27939;SDS011;15275;51.716;14.324;2023-04-15T14:09:17;4.60;;;3.80;;
27939;SDS011;15275;51.716;14.324;2023-04-15T14:11:43;5.30;;;3.83;;
27939;SDS011;15275;51.716;14.324;2023-04-15T14:14:08;5.57;;;4.15;;
27939;SDS011;15275;51.716;14.324;2023-04-15T14:16:34;5.03;;;3.58;;
27939;SDS011;15275;51.716;14.324;2023-04-15T14:19:00;5.80;;;4.05;;
27939;SDS011;15275;51.716;14.324;2023-04-15T14:21:26;7.38;;;4.20;;
27939;SDS011;15275;51.716;14.324;2023-04-15T14:23:53;7.10;;;3.92;;
27939;SDS011;15275;51.716;14.324;2023-04-15T14:26:19;5.20;;;3.80;;
27939;SDS011;15275;51.716;14.324;2023-04-15T14:28:45;4.43;;;3.55;;
27939;SDS011;15275;51.716;14.324;2023-04-15T14:31:12;4.78;;;3.58;;
27939;SDS011;15275;51.716;14.324;2023-04-15T14:33:38;6.85;;;3.78;;
27939;SDS011;15275;51.716;14.324;2023-04-15T14:36:05;6.45;;;3.60;;
27939;SDS011;15275;51.716;14.324;2023-04-15T14:38:33;4.70;;;3.63;;
27939;SDS011;15275;51.716;14.324;2023-04-15T14:41:04;6.00;;;4.10;;
27939;SDS011;15275;51.716;14.324;2023-04-15T14:43:31;6.53;;;4.32;;